sensor_id;sensor_type;location;lat;lon;timestamp;P1;durP1;ratioP1;P2;durP2;ratioP2
11638;SDS011;5875;35.940;126.892;2023-11-19T00:02:01;0.33;;;0.33;;
11638;SDS011;5875;35.940;126.892;2023-11-19T00:04:28;0.23;;;0.23;;
11638;SDS011;5875;35.940;126.892;2023-11-19T00:06:56;0.43;;;0.43;;
11638;SDS011;5875;35.940;126.892;2023-11-19T00:09:28;1.03;;;1.03;;
11638;SDS011;5875;35.940;126.892;2023-11-19T00:11:55;0.30;;;0.30;;
11638;SDS011;5875;35.940;126.892;2023-11-19T00:14:22;0.90;;;0.90;;
11638;SDS011;5875;35.940;126.892;2023-11-19T00:16:51;0.60;;;0.60;;
11638;SDS011;5875;35.940;126.892;2023-11-19T00:19:25;1.10;;;1.10;;
11638;SDS011;5875;35.940;126.892;2023-11-19T00:21:52;0.20;;;0.20;;
11638;SDS011;5875;35.940;126.892;2023-11-19T00:24:22;0.57;;;0.50;;
11638;SDS011;5875;35.940;126.892;2023-11-19T00:26:49;1.90;;;1.50;;
11638;SDS011;5875;35.940;126.892;2023-11-19T00:29:16;0.97;;;0.63;;
11638;SDS011;5875;35.940;126.892;2023-11-19T00:31:45;1.43;;;1.33;;
11638;SDS011;5875;35.940;126.892;2023-11-19T00:34:13;0.80;;;0.80;;
11638;SDS011;5875;35.940;126.892;2023-11-19T00:36:40;1.80;;;1.23;;
11638;SDS011;5875;35.940;126.892;2023-11-19T00:39:07;0.27;;;0.27;;
11638;SDS011;5875;35.940;126.892;2023-11-19T00:41:34;1.27;;;1.17;;
11638;SDS011;5875;35.940;126.892;2023-11-19T00:44:02;0.67;;;0.67;;
11638;SDS011;5875;35.940;126.892;2023-11-19T00:46:32;1.13;;;1.13;;
11638;SDS011;5875;35.940;126.892;2023-11-19T00:48:59;0.90;;;0.90;;
11638;SDS011;5875;35.940;126.892;2023-11-19T00:51:26;1.77;;;1.67;;
11638;SDS011;5875;35.940;126.892;2023-11-19T00:53:53;1.73;;;1.50;;
11638;SDS011;5875;35.940;126.892;2023-11-19T00:56:21;0.87;;;0.87;;
11638;SDS011;5875;35.940;126.892;2023-11-19T00:58:48;0.37;;;0.37;;
11638;SDS011;5875;35.940;126.892;2023-11-19T01:01:15;3.07;;;1.97;;
11638;SDS011;5875;35.940;126.892;2023-11-19T01:03:42;0.80;;;0.80;;
11638;SDS011;5875;35.940;126.892;2023-11-19T01:06:10;1.70;;;1.07;;
11638;SDS011;5875;35.940;126.892;2023-11-19T01:08:37;0.30;;;0.30;;
11638;SDS011;5875;35.940;126.892;2023-11-19T01:11:04;0.20;;;0.20;;
11638;SDS011;5875;35.940;126.892;2023-11-19T01:13:31;0.30;;;0.30;;
11638;SDS011;5875;35.940;126.892;2023-11-19T01:15:58;1.70;;;0.73;;
11638;SDS011;5875;35.940;126.892;2023-11-19T01:18:27;0.80;;;0.50;;
11638;SDS011;5875;35.940;126.892;2023-11-19T01:20:54;0.23;;;0.23;;
11638;SDS011;5875;35.940;126.892;2023-11-19T01:23:24;2.20;;;0.30;;
11638;SDS011;5875;35.940;126.892;2023-11-19T01:25:51;1.50;;;1.40;;
11638;SDS011;5875;35.940;126.892;2023-11-19T01:28:19;0.50;;;0.50;;
11638;SDS011;5875;35.940;126.892;2023-11-19T01:30:46;0.30;;;0.30;;
11638;SDS011;5875;35.940;126.892;2023-11-19T01:33:19;0.30;;;0.30;;
11638;SDS011;5875;35.940;126.892;2023-11-19T01:35:47;0.03;;;0.03;;
11638;SDS011;5875;35.940;126.892;2023-11-19T01:38:14;0.00;;;0.00;;
11638;SDS011;5875;35.940;126.892;2023-11-19T01:40:41;0.00;;;0.00;;
11638;SDS011;5875;35.940;126.892;2023-11-19T01:43:08;0.20;;;0.20;;
11638;SDS011;5875;35.940;126.892;2023-11-19T01:45:37;0.23;;;0.23;;
11638;SDS011;5875;35.940;126.892;2023-11-19T01:48:05;0.10;;;0.10;;
11638;SDS011;5875;35.940;126.892;2023-11-19T01:50:36;0.17;;;0.17;;
11638;SDS011;5875;35.940;126.892;2023-11-19T01:53:05;0.63;;;0.33;;
11638;SDS011;5875;35.940;126.892;2023-11-19T01:55:33;1.43;;;0.53;;
11638;SDS011;5875;35.940;126.892;2023-11-19T01:58:00;0.53;;;0.47;;
11638;SDS011;5875;35.940;126.892;2023-11-19T02:00:31;0.40;;;0.40;;
11638;SDS011;5875;35.940;126.892;2023-11-19T02:02:58;0.30;;;0.20;;
11638;SDS011;5875;35.940;126.892;2023-11-19T02:05:26;0.50;;;0.50;;
11638;SDS011;5875;35.940;126.892;2023-11-19T02:07:53;0.57;;;0.43;;
11638;SDS011;5875;35.940;126.892;2023-11-19T02:10:21;0.40;;;0.40;;
11638;SDS011;5875;35.940;126.892;2023-11-19T02:12:50;0.10;;;0.10;;
11638;SDS011;5875;35.940;126.892;2023-11-19T02:15:18;0.10;;;0.10;;
11638;SDS011;5875;35.940;126.892;2023-11-19T02:17:45;0.40;;;0.40;;
11638;SDS011;5875;35.940;126.892;2023-11-19T02:20:16;0.73;;;0.73;;
11638;SDS011;5875;35.940;126.892;2023-11-19T02:22:46;0.17;;;0.17;;
11638;SDS011;5875;35.940;126.892;2023-11-19T02:25:20;0.20;;;0.20;;
11638;SDS011;5875;35.940;126.892;2023-11-19T02:27:53;1.00;;;1.00;;
11638;SDS011;5875;35.940;126.892;2023-11-19T02:30:27;0.10;;;0.10;;
11638;SDS011;5875;35.940;126.892;2023-11-19T02:33:00;0.10;;;0.10;;
11638;SDS011;5875;35.940;126.892;2023-11-19T02:35:34;0.10;;;0.10;;
11638;SDS011;5875;35.940;126.892;2023-11-19T02:38:04;0.00;;;0.00;;
11638;SDS011;5875;35.940;126.892;2023-11-19T02:40:32;0.13;;;0.13;;
11638;SDS011;5875;35.940;126.892;2023-11-19T02:42:59;1.57;;;0.77;;
11638;SDS011;5875;35.940;126.892;2023-11-19T02:45:27;0.10;;;0.10;;
11638;SDS011;5875;35.940;126.892;2023-11-19T02:47:56;0.30;;;0.30;;
11638;SDS011;5875;35.940;126.892;2023-11-19T02:50:23;0.73;;;0.73;;
11638;SDS011;5875;35.940;126.892;2023-11-19T02:52:55;0.27;;;0.27;;
11638;SDS011;5875;35.940;126.892;2023-11-19T02:55:22;0.00;;;0.00;;
11638;SDS011;5875;35.940;126.892;2023-11-19T02:57:53;0.50;;;0.50;;
11638;SDS011;5875;35.940;126.892;2023-11-19T03:00:22;0.10;;;0.10;;
11638;SDS011;5875;35.940;126.892;2023-11-19T03:02:50;0.20;;;0.20;;
11638;SDS011;5875;35.940;126.892;2023-11-19T03:05:35;0.60;;;0.60;;
11638;SDS011;5875;35.940;126.892;2023-11-19T03:08:02;0.20;;;0.20;;
11638;SDS011;5875;35.940;126.892;2023-11-19T03:10:29;0.10;;;0.10;;
11638;SDS011;5875;35.940;126.892;2023-11-19T03:12:57;0.00;;;0.00;;
11638;SDS011;5875;35.940;126.892;2023-11-19T03:15:24;0.10;;;0.10;;
11638;SDS011;5875;35.940;126.892;2023-11-19T03:17:52;0.30;;;0.20;;
11638;SDS011;5875;35.940;126.892;2023-11-19T03:20:19;0.27;;;0.27;;
11638;SDS011;5875;35.940;126.892;2023-11-19T03:22:49;0.60;;;0.60;;
11638;SDS011;5875;35.940;126.892;2023-11-19T03:25:17;0.77;;;0.57;;
11638;SDS011;5875;35.940;126.892;2023-11-19T03:27:44;0.10;;;0.10;;
11638;SDS011;5875;35.940;126.892;2023-11-19T03:30:11;0.60;;;0.60;;
11638;SDS011;5875;35.940;126.892;2023-11-19T03:32:38;0.10;;;0.10;;
11638;SDS011;5875;35.940;126.892;2023-11-19T03:35:06;0.37;;;0.27;;
11638;SDS011;5875;35.940;126.892;2023-11-19T03:37:37;0.30;;;0.30;;
11638;SDS011;5875;35.940;126.892;2023-11-19T03:40:07;0.90;;;0.90;;
11638;SDS011;5875;35.940;126.892;2023-11-19T03:42:35;1.27;;;1.20;;
11638;SDS011;5875;35.940;126.892;2023-11-19T03:45:06;0.43;;;0.43;;
11638;SDS011;5875;35.940;126.892;2023-11-19T03:47:36;0.20;;;0.20;;
11638;SDS011;5875;35.940;126.892;2023-11-19T03:50:04;0.10;;;0.10;;
11638;SDS011;5875;35.940;126.892;2023-11-19T03:52:36;1.43;;;0.83;;
11638;SDS011;5875;35.940;126.892;2023-11-19T03:55:06;0.40;;;0.40;;
11638;SDS011;5875;35.940;126.892;2023-11-19T03:57:34;0.10;;;0.10;;
11638;SDS011;5875;35.940;126.892;2023-11-19T04:00:01;0.30;;;0.30;;
11638;SDS011;5875;35.940;126.892;2023-11-19T04:02:34;0.10;;;0.10;;
11638;SDS011;5875;35.940;126.892;2023-11-19T04:05:03;0.60;;;0.60;;
11638;SDS011;5875;35.940;126.892;2023-11-19T04:07:48;0.10;;;0.10;;
11638;SDS011;5875;35.940;126.892;2023-11-19T04:10:15;0.20;;;0.20;;
11638;SDS011;5875;35.940;126.892;2023-11-19T04:12:43;0.07;;;0.07;;
11638;SDS011;5875;35.940;126.892;2023-11-19T04:15:10;0.63;;;0.20;;
11638;SDS011;5875;35.940;126.892;2023-11-19T04:17:38;0.10;;;0.10;;
11638;SDS011;5875;35.940;126.892;2023-11-19T04:20:06;0.00;;;0.00;;
11638;SDS011;5875;35.940;126.892;2023-11-19T04:22:37;0.00;;;0.00;;
11638;SDS011;5875;35.940;126.892;2023-11-19T04:25:07;0.20;;;0.20;;
11638;SDS011;5875;35.940;126.892;2023-11-19T04:27:35;0.83;;;0.77;;
11638;SDS011;5875;35.940;126.892;2023-11-19T04:30:05;0.13;;;0.13;;
11638;SDS011;5875;35.940;126.892;2023-11-19T04:32:35;0.20;;;0.20;;
11638;SDS011;5875;35.940;126.892;2023-11-19T04:35:03;0.10;;;0.10;;
11638;SDS011;5875;35.940;126.892;2023-11-19T04:37:30;0.17;;;0.17;;
11638;SDS011;5875;35.940;126.892;2023-11-19T04:40:00;0.10;;;0.10;;
11638;SDS011;5875;35.940;126.892;2023-11-19T04:42:27;0.03;;;0.03;;
11638;SDS011;5875;35.940;126.892;2023-11-19T04:44:55;0.07;;;0.07;;
11638;SDS011;5875;35.940;126.892;2023-11-19T04:47:25;0.17;;;0.10;;
11638;SDS011;5875;35.940;126.892;2023-11-19T04:49:52;1.13;;;1.07;;
11638;SDS011;5875;35.940;126.892;2023-11-19T04:52:19;0.77;;;0.77;;
11638;SDS011;5875;35.940;126.892;2023-11-19T04:54:46;0.10;;;0.10;;
11638;SDS011;5875;35.940;126.892;2023-11-19T04:57:13;0.00;;;0.00;;
11638;SDS011;5875;35.940;126.892;2023-11-19T04:59:41;0.20;;;0.20;;
11638;SDS011;5875;35.940;126.892;2023-11-19T05:02:08;0.50;;;0.30;;
11638;SDS011;5875;35.940;126.892;2023-11-19T05:04:35;0.87;;;0.40;;
11638;SDS011;5875;35.940;126.892;2023-11-19T05:07:06;0.00;;;0.00;;
11638;SDS011;5875;35.940;126.892;2023-11-19T05:09:33;0.60;;;0.60;;
11638;SDS011;5875;35.940;126.892;2023-11-19T05:12:00;0.00;;;0.00;;
11638;SDS011;5875;35.940;126.892;2023-11-19T05:14:27;0.20;;;0.20;;
11638;SDS011;5875;35.940;126.892;2023-11-19T05:16:55;0.10;;;0.10;;
11638;SDS011;5875;35.940;126.892;2023-11-19T05:19:22;0.10;;;0.10;;
11638;SDS011;5875;35.940;126.892;2023-11-19T05:21:49;0.67;;;0.67;;
11638;SDS011;5875;35.940;126.892;2023-11-19T05:24:17;0.60;;;0.60;;
11638;SDS011;5875;35.940;126.892;2023-11-19T05:26:45;0.13;;;0.13;;
11638;SDS011;5875;35.940;126.892;2023-11-19T05:29:12;0.27;;;0.27;;
11638;SDS011;5875;35.940;126.892;2023-11-19T05:31:40;0.20;;;0.20;;
11638;SDS011;5875;35.940;126.892;2023-11-19T05:34:07;0.37;;;0.20;;
11638;SDS011;5875;35.940;126.892;2023-11-19T05:36:34;0.07;;;0.07;;
11638;SDS011;5875;35.940;126.892;2023-11-19T05:39:01;0.20;;;0.20;;
11638;SDS011;5875;35.940;126.892;2023-11-19T05:41:29;0.53;;;0.53;;
11638;SDS011;5875;35.940;126.892;2023-11-19T05:43:56;0.33;;;0.33;;
11638;SDS011;5875;35.940;126.892;2023-11-19T05:46:23;0.30;;;0.30;;
11638;SDS011;5875;35.940;126.892;2023-11-19T05:48:52;0.00;;;0.00;;
11638;SDS011;5875;35.940;126.892;2023-11-19T05:51:25;0.30;;;0.30;;
11638;SDS011;5875;35.940;126.892;2023-11-19T05:53:55;0.20;;;0.10;;
11638;SDS011;5875;35.940;126.892;2023-11-19T05:56:23;1.57;;;1.47;;
11638;SDS011;5875;35.940;126.892;2023-11-19T05:58:50;0.97;;;0.93;;
11638;SDS011;5875;35.940;126.892;2023-11-19T06:01:17;0.57;;;0.57;;
11638;SDS011;5875;35.940;126.892;2023-11-19T06:03:44;0.93;;;0.93;;
11638;SDS011;5875;35.940;126.892;2023-11-19T06:06:15;0.10;;;0.10;;
11638;SDS011;5875;35.940;126.892;2023-11-19T06:08:42;0.10;;;0.10;;
11638;SDS011;5875;35.940;126.892;2023-11-19T06:11:10;1.43;;;1.33;;
11638;SDS011;5875;35.940;126.892;2023-11-19T06:13:44;0.47;;;0.40;;
11638;SDS011;5875;35.940;126.892;2023-11-19T06:16:11;0.40;;;0.40;;
11638;SDS011;5875;35.940;126.892;2023-11-19T06:18:39;2.00;;;0.40;;
11638;SDS011;5875;35.940;126.892;2023-11-19T06:21:07;1.13;;;0.90;;
11638;SDS011;5875;35.940;126.892;2023-11-19T06:23:34;0.20;;;0.20;;
11638;SDS011;5875;35.940;126.892;2023-11-19T06:26:01;0.53;;;0.53;;
11638;SDS011;5875;35.940;126.892;2023-11-19T06:28:28;1.07;;;0.47;;
11638;SDS011;5875;35.940;126.892;2023-11-19T06:30:55;0.50;;;0.50;;
11638;SDS011;5875;35.940;126.892;2023-11-19T06:33:23;0.00;;;0.00;;
11638;SDS011;5875;35.940;126.892;2023-11-19T06:35:51;0.30;;;0.23;;
11638;SDS011;5875;35.940;126.892;2023-11-19T06:38:20;0.10;;;0.10;;
11638;SDS011;5875;35.940;126.892;2023-11-19T06:40:47;0.00;;;0.00;;
11638;SDS011;5875;35.940;126.892;2023-11-19T06:43:14;0.47;;;0.47;;
11638;SDS011;5875;35.940;126.892;2023-11-19T06:45:41;0.40;;;0.40;;
11638;SDS011;5875;35.940;126.892;2023-11-19T06:48:08;0.47;;;0.47;;
11638;SDS011;5875;35.940;126.892;2023-11-19T06:50:36;0.20;;;0.20;;
11638;SDS011;5875;35.940;126.892;2023-11-19T06:53:03;0.10;;;0.10;;
11638;SDS011;5875;35.940;126.892;2023-11-19T06:55:31;0.20;;;0.20;;
11638;SDS011;5875;35.940;126.892;2023-11-19T06:57:59;0.17;;;0.17;;
11638;SDS011;5875;35.940;126.892;2023-11-19T07:00:29;0.40;;;0.40;;
11638;SDS011;5875;35.940;126.892;2023-11-19T07:02:58;0.23;;;0.23;;
11638;SDS011;5875;35.940;126.892;2023-11-19T07:05:25;1.00;;;0.57;;
11638;SDS011;5875;35.940;126.892;2023-11-19T07:07:53;0.43;;;0.43;;
11638;SDS011;5875;35.940;126.892;2023-11-19T07:10:21;3.40;;;0.90;;
11638;SDS011;5875;35.940;126.892;2023-11-19T07:12:48;0.67;;;0.67;;
11638;SDS011;5875;35.940;126.892;2023-11-19T07:15:16;0.50;;;0.50;;
11638;SDS011;5875;35.940;126.892;2023-11-19T07:17:43;1.90;;;1.23;;
11638;SDS011;5875;35.940;126.892;2023-11-19T07:20:10;1.33;;;1.23;;
11638;SDS011;5875;35.940;126.892;2023-11-19T07:22:43;0.10;;;0.10;;
11638;SDS011;5875;35.940;126.892;2023-11-19T07:25:12;0.30;;;0.30;;
11638;SDS011;5875;35.940;126.892;2023-11-19T07:27:46;0.10;;;0.10;;
11638;SDS011;5875;35.940;126.892;2023-11-19T07:30:13;0.93;;;0.93;;
11638;SDS011;5875;35.940;126.892;2023-11-19T07:32:40;0.30;;;0.30;;
11638;SDS011;5875;35.940;126.892;2023-11-19T07:35:11;2.90;;;2.30;;
11638;SDS011;5875;35.940;126.892;2023-11-19T07:37:38;0.70;;;0.70;;
11638;SDS011;5875;35.940;126.892;2023-11-19T07:40:05;0.50;;;0.50;;
11638;SDS011;5875;35.940;126.892;2023-11-19T07:42:33;8.80;;;1.23;;
11638;SDS011;5875;35.940;126.892;2023-11-19T07:45:00;0.60;;;0.47;;
11638;SDS011;5875;35.940;126.892;2023-11-19T07:47:27;1.20;;;1.10;;
11638;SDS011;5875;35.940;126.892;2023-11-19T07:49:54;0.73;;;0.73;;
11638;SDS011;5875;35.940;126.892;2023-11-19T07:52:24;1.23;;;1.13;;
11638;SDS011;5875;35.940;126.892;2023-11-19T07:54:51;4.67;;;3.03;;
11638;SDS011;5875;35.940;126.892;2023-11-19T07:57:19;0.73;;;0.67;;
11638;SDS011;5875;35.940;126.892;2023-11-19T07:59:46;0.43;;;0.43;;
11638;SDS011;5875;35.940;126.892;2023-11-19T08:02:13;0.70;;;0.70;;
11638;SDS011;5875;35.940;126.892;2023-11-19T08:04:40;0.67;;;0.67;;
11638;SDS011;5875;35.940;126.892;2023-11-19T08:07:11;0.17;;;0.17;;
11638;SDS011;5875;35.940;126.892;2023-11-19T08:09:40;0.43;;;0.43;;
11638;SDS011;5875;35.940;126.892;2023-11-19T08:12:08;0.40;;;0.40;;
11638;SDS011;5875;35.940;126.892;2023-11-19T08:14:35;0.30;;;0.30;;
11638;SDS011;5875;35.940;126.892;2023-11-19T08:17:03;0.30;;;0.30;;
11638;SDS011;5875;35.940;126.892;2023-11-19T08:19:30;0.33;;;0.33;;
11638;SDS011;5875;35.940;126.892;2023-11-19T08:21:57;1.37;;;1.30;;
11638;SDS011;5875;35.940;126.892;2023-11-19T08:24:24;1.17;;;0.60;;
11638;SDS011;5875;35.940;126.892;2023-11-19T08:26:51;1.27;;;0.70;;
11638;SDS011;5875;35.940;126.892;2023-11-19T08:29:18;0.20;;;0.20;;
11638;SDS011;5875;35.940;126.892;2023-11-19T08:31:49;1.87;;;1.77;;
11638;SDS011;5875;35.940;126.892;2023-11-19T08:34:16;1.30;;;0.97;;
11638;SDS011;5875;35.940;126.892;2023-11-19T08:36:44;0.33;;;0.33;;
11638;SDS011;5875;35.940;126.892;2023-11-19T08:39:11;0.30;;;0.30;;
11638;SDS011;5875;35.940;126.892;2023-11-19T08:41:39;0.37;;;0.37;;
11638;SDS011;5875;35.940;126.892;2023-11-19T08:44:07;1.30;;;0.97;;
11638;SDS011;5875;35.940;126.892;2023-11-19T08:46:34;0.30;;;0.30;;
11638;SDS011;5875;35.940;126.892;2023-11-19T08:49:01;0.37;;;0.37;;
11638;SDS011;5875;35.940;126.892;2023-11-19T08:51:28;0.43;;;0.43;;
11638;SDS011;5875;35.940;126.892;2023-11-19T08:53:55;0.77;;;0.73;;
11638;SDS011;5875;35.940;126.892;2023-11-19T08:56:23;1.03;;;1.03;;
11638;SDS011;5875;35.940;126.892;2023-11-19T08:58:50;0.67;;;0.40;;
11638;SDS011;5875;35.940;126.892;2023-11-19T09:01:17;0.30;;;0.30;;
11638;SDS011;5875;35.940;126.892;2023-11-19T09:03:44;0.53;;;0.53;;
11638;SDS011;5875;35.940;126.892;2023-11-19T09:06:11;1.00;;;0.57;;
11638;SDS011;5875;35.940;126.892;2023-11-19T09:08:38;0.37;;;0.33;;
11638;SDS011;5875;35.940;126.892;2023-11-19T09:11:08;0.33;;;0.33;;
11638;SDS011;5875;35.940;126.892;2023-11-19T09:13:36;0.40;;;0.40;;
11638;SDS011;5875;35.940;126.892;2023-11-19T09:16:03;1.60;;;1.50;;
11638;SDS011;5875;35.940;126.892;2023-11-19T09:18:30;1.67;;;1.57;;
11638;SDS011;5875;35.940;126.892;2023-11-19T09:20:58;0.40;;;0.40;;
11638;SDS011;5875;35.940;126.892;2023-11-19T09:23:25;0.60;;;0.33;;
11638;SDS011;5875;35.940;126.892;2023-11-19T09:25:54;0.40;;;0.40;;
11638;SDS011;5875;35.940;126.892;2023-11-19T09:28:22;0.37;;;0.37;;
11638;SDS011;5875;35.940;126.892;2023-11-19T09:30:49;0.87;;;0.87;;
11638;SDS011;5875;35.940;126.892;2023-11-19T09:33:16;7.73;;;2.00;;
11638;SDS011;5875;35.940;126.892;2023-11-19T09:35:43;1.10;;;1.10;;
11638;SDS011;5875;35.940;126.892;2023-11-19T09:38:11;0.77;;;0.77;;
11638;SDS011;5875;35.940;126.892;2023-11-19T09:40:38;1.50;;;1.17;;
11638;SDS011;5875;35.940;126.892;2023-11-19T09:43:05;0.10;;;0.10;;
11638;SDS011;5875;35.940;126.892;2023-11-19T09:45:42;0.93;;;0.50;;
11638;SDS011;5875;35.940;126.892;2023-11-19T09:48:21;1.10;;;1.03;;
11638;SDS011;5875;35.940;126.892;2023-11-19T09:50:50;1.33;;;1.23;;
11638;SDS011;5875;35.940;126.892;2023-11-19T09:53:23;0.97;;;0.97;;
11638;SDS011;5875;35.940;126.892;2023-11-19T09:55:50;1.80;;;1.70;;
11638;SDS011;5875;35.940;126.892;2023-11-19T09:58:19;0.50;;;0.50;;
11638;SDS011;5875;35.940;126.892;2023-11-19T10:00:47;1.13;;;1.13;;
11638;SDS011;5875;35.940;126.892;2023-11-19T10:03:17;0.30;;;0.30;;
11638;SDS011;5875;35.940;126.892;2023-11-19T10:05:44;0.90;;;0.90;;
11638;SDS011;5875;35.940;126.892;2023-11-19T10:08:11;0.53;;;0.53;;
11638;SDS011;5875;35.940;126.892;2023-11-19T10:10:39;0.43;;;0.43;;
11638;SDS011;5875;35.940;126.892;2023-11-19T10:13:06;0.73;;;0.73;;
11638;SDS011;5875;35.940;126.892;2023-11-19T10:15:36;1.23;;;0.57;;
11638;SDS011;5875;35.940;126.892;2023-11-19T10:18:07;0.93;;;0.93;;
11638;SDS011;5875;35.940;126.892;2023-11-19T10:20:37;1.73;;;1.20;;
11638;SDS011;5875;35.940;126.892;2023-11-19T10:23:08;1.47;;;1.37;;
11638;SDS011;5875;35.940;126.892;2023-11-19T10:25:36;2.23;;;2.13;;
11638;SDS011;5875;35.940;126.892;2023-11-19T10:28:04;0.23;;;0.23;;
11638;SDS011;5875;35.940;126.892;2023-11-19T10:30:31;2.97;;;1.63;;
11638;SDS011;5875;35.940;126.892;2023-11-19T10:33:08;1.43;;;1.37;;
11638;SDS011;5875;35.940;126.892;2023-11-19T10:35:52;0.80;;;0.80;;
11638;SDS011;5875;35.940;126.892;2023-11-19T10:38:22;1.50;;;1.40;;
11638;SDS011;5875;35.940;126.892;2023-11-19T10:40:50;1.70;;;1.60;;
11638;SDS011;5875;35.940;126.892;2023-11-19T10:43:18;1.17;;;1.17;;
11638;SDS011;5875;35.940;126.892;2023-11-19T10:45:48;1.17;;;1.07;;
11638;SDS011;5875;35.940;126.892;2023-11-19T10:48:15;1.03;;;1.03;;
11638;SDS011;5875;35.940;126.892;2023-11-19T10:50:44;2.30;;;2.10;;
11638;SDS011;5875;35.940;126.892;2023-11-19T10:53:13;1.60;;;1.50;;
11638;SDS011;5875;35.940;126.892;2023-11-19T10:55:41;3.07;;;2.17;;
11638;SDS011;5875;35.940;126.892;2023-11-19T10:58:13;6.50;;;2.97;;
11638;SDS011;5875;35.940;126.892;2023-11-19T11:00:47;1.77;;;1.67;;
11638;SDS011;5875;35.940;126.892;2023-11-19T11:03:18;2.63;;;2.43;;
11638;SDS011;5875;35.940;126.892;2023-11-19T11:05:49;2.57;;;2.47;;
11638;SDS011;5875;35.940;126.892;2023-11-19T11:08:18;7.37;;;2.87;;
11638;SDS011;5875;35.940;126.892;2023-11-19T11:10:55;6.20;;;2.77;;
11638;SDS011;5875;35.940;126.892;2023-11-19T11:13:26;2.47;;;2.30;;
11638;SDS011;5875;35.940;126.892;2023-11-19T11:15:55;2.67;;;2.37;;
11638;SDS011;5875;35.940;126.892;2023-11-19T11:18:26;1.80;;;1.70;;
11638;SDS011;5875;35.940;126.892;2023-11-19T11:20:55;2.23;;;2.03;;
11638;SDS011;5875;35.940;126.892;2023-11-19T11:37:17;2.53;;;2.33;;
11638;SDS011;5875;35.940;126.892;2023-11-19T11:39:50;3.37;;;3.00;;
11638;SDS011;5875;35.940;126.892;2023-11-19T11:45:04;3.57;;;3.27;;
11638;SDS011;5875;35.940;126.892;2023-11-19T11:50:13;5.23;;;4.57;;
11638;SDS011;5875;35.940;126.892;2023-11-19T11:55:27;2.20;;;2.10;;
11638;SDS011;5875;35.940;126.892;2023-11-19T11:58:02;4.40;;;3.47;;
11638;SDS011;5875;35.940;126.892;2023-11-19T12:00:31;2.23;;;2.03;;
11638;SDS011;5875;35.940;126.892;2023-11-19T12:03:08;2.73;;;2.57;;
11638;SDS011;5875;35.940;126.892;2023-11-19T12:05:46;4.57;;;3.93;;
11638;SDS011;5875;35.940;126.892;2023-11-19T12:08:15;2.73;;;2.53;;
11638;SDS011;5875;35.940;126.892;2023-11-19T12:10:52;2.00;;;1.90;;
11638;SDS011;5875;35.940;126.892;2023-11-19T12:13:24;1.53;;;1.43;;
11638;SDS011;5875;35.940;126.892;2023-11-19T12:16:06;4.07;;;3.67;;
11638;SDS011;5875;35.940;126.892;2023-11-19T12:18:34;3.67;;;3.37;;
11638;SDS011;5875;35.940;126.892;2023-11-19T12:21:01;2.17;;;1.90;;
11638;SDS011;5875;35.940;126.892;2023-11-19T12:23:31;3.37;;;3.07;;
11638;SDS011;5875;35.940;126.892;2023-11-19T12:25:59;4.73;;;3.00;;
11638;SDS011;5875;35.940;126.892;2023-11-19T12:28:26;18.50;;;3.77;;
11638;SDS011;5875;35.940;126.892;2023-11-19T12:30:54;5.17;;;4.50;;
11638;SDS011;5875;35.940;126.892;2023-11-19T12:33:37;4.40;;;4.00;;
11638;SDS011;5875;35.940;126.892;2023-11-19T12:36:04;3.37;;;2.83;;
11638;SDS011;5875;35.940;126.892;2023-11-19T12:38:32;2.53;;;2.40;;
11638;SDS011;5875;35.940;126.892;2023-11-19T12:41:02;2.90;;;2.73;;
11638;SDS011;5875;35.940;126.892;2023-11-19T12:43:46;3.53;;;3.33;;
11638;SDS011;5875;35.940;126.892;2023-11-19T12:46:19;3.40;;;3.20;;
11638;SDS011;5875;35.940;126.892;2023-11-19T12:48:48;2.53;;;2.37;;
11638;SDS011;5875;35.940;126.892;2023-11-19T12:51:16;6.17;;;3.63;;
11638;SDS011;5875;35.940;126.892;2023-11-19T12:53:52;32.70;;;4.93;;
11638;SDS011;5875;35.940;126.892;2023-11-19T12:56:24;2.90;;;2.70;;
11638;SDS011;5875;35.940;126.892;2023-11-19T12:58:51;4.63;;;2.43;;
11638;SDS011;5875;35.940;126.892;2023-11-19T13:01:19;3.30;;;2.87;;
11638;SDS011;5875;35.940;126.892;2023-11-19T13:03:46;2.23;;;2.13;;
11638;SDS011;5875;35.940;126.892;2023-11-19T13:06:15;2.57;;;2.37;;
11638;SDS011;5875;35.940;126.892;2023-11-19T13:08:43;3.07;;;1.40;;
11638;SDS011;5875;35.940;126.892;2023-11-19T13:11:14;3.20;;;2.67;;
11638;SDS011;5875;35.940;126.892;2023-11-19T13:14:05;1.70;;;1.60;;
11638;SDS011;5875;35.940;126.892;2023-11-19T13:16:37;2.30;;;2.13;;
11638;SDS011;5875;35.940;126.892;2023-11-19T13:19:04;2.10;;;1.97;;
11638;SDS011;5875;35.940;126.892;2023-11-19T13:21:31;4.03;;;3.53;;
11638;SDS011;5875;35.940;126.892;2023-11-19T13:23:59;3.07;;;2.83;;
11638;SDS011;5875;35.940;126.892;2023-11-19T13:26:26;1.90;;;1.77;;
11638;SDS011;5875;35.940;126.892;2023-11-19T13:28:53;3.77;;;2.00;;
11638;SDS011;5875;35.940;126.892;2023-11-19T13:31:21;1.73;;;1.63;;
11638;SDS011;5875;35.940;126.892;2023-11-19T13:33:48;2.50;;;2.07;;
11638;SDS011;5875;35.940;126.892;2023-11-19T13:36:15;2.10;;;1.80;;
11638;SDS011;5875;35.940;126.892;2023-11-19T13:38:42;1.17;;;1.17;;
11638;SDS011;5875;35.940;126.892;2023-11-19T13:41:15;2.17;;;2.07;;
11638;SDS011;5875;35.940;126.892;2023-11-19T13:43:42;3.17;;;2.23;;
11638;SDS011;5875;35.940;126.892;2023-11-19T13:46:10;1.60;;;1.50;;
11638;SDS011;5875;35.940;126.892;2023-11-19T13:48:37;3.63;;;2.20;;
11638;SDS011;5875;35.940;126.892;2023-11-19T13:51:04;1.60;;;1.50;;
11638;SDS011;5875;35.940;126.892;2023-11-19T13:53:32;2.97;;;2.63;;
11638;SDS011;5875;35.940;126.892;2023-11-19T13:55:59;2.33;;;2.13;;
11638;SDS011;5875;35.940;126.892;2023-11-19T13:58:26;1.23;;;1.13;;
11638;SDS011;5875;35.940;126.892;2023-11-19T14:00:53;2.33;;;2.13;;
11638;SDS011;5875;35.940;126.892;2023-11-19T14:03:20;2.50;;;1.60;;
11638;SDS011;5875;35.940;126.892;2023-11-19T14:05:48;3.80;;;3.50;;
11638;SDS011;5875;35.940;126.892;2023-11-19T14:08:17;2.77;;;2.57;;
11638;SDS011;5875;35.940;126.892;2023-11-19T14:10:44;3.43;;;2.23;;
11638;SDS011;5875;35.940;126.892;2023-11-19T14:13:12;2.00;;;1.80;;
11638;SDS011;5875;35.940;126.892;2023-11-19T14:15:40;2.70;;;1.30;;
11638;SDS011;5875;35.940;126.892;2023-11-19T14:18:08;1.23;;;1.10;;
11638;SDS011;5875;35.940;126.892;2023-11-19T14:20:35;1.33;;;1.23;;
11638;SDS011;5875;35.940;126.892;2023-11-19T14:23:04;2.33;;;2.23;;
11638;SDS011;5875;35.940;126.892;2023-11-19T14:25:31;2.60;;;2.40;;
11638;SDS011;5875;35.940;126.892;2023-11-19T14:27:59;2.40;;;2.13;;
11638;SDS011;5875;35.940;126.892;2023-11-19T14:30:26;1.30;;;1.20;;
11638;SDS011;5875;35.940;126.892;2023-11-19T14:32:53;1.40;;;1.30;;
11638;SDS011;5875;35.940;126.892;2023-11-19T14:35:21;1.17;;;1.07;;
11638;SDS011;5875;35.940;126.892;2023-11-19T14:37:48;3.10;;;2.43;;
11638;SDS011;5875;35.940;126.892;2023-11-19T14:40:15;3.57;;;0.83;;
11638;SDS011;5875;35.940;126.892;2023-11-19T14:42:42;3.43;;;1.87;;
11638;SDS011;5875;35.940;126.892;2023-11-19T14:45:09;4.90;;;3.43;;
11638;SDS011;5875;35.940;126.892;2023-11-19T14:47:37;1.17;;;1.17;;
11638;SDS011;5875;35.940;126.892;2023-11-19T14:50:05;2.00;;;1.90;;
11638;SDS011;5875;35.940;126.892;2023-11-19T14:52:34;0.70;;;0.70;;
11638;SDS011;5875;35.940;126.892;2023-11-19T14:55:02;1.23;;;1.07;;
11638;SDS011;5875;35.940;126.892;2023-11-19T14:57:30;1.77;;;1.67;;
11638;SDS011;5875;35.940;126.892;2023-11-19T14:59:58;3.40;;;2.30;;
11638;SDS011;5875;35.940;126.892;2023-11-19T15:02:26;1.20;;;0.93;;
11638;SDS011;5875;35.940;126.892;2023-11-19T15:04:53;1.70;;;1.60;;